Huntington, California
Current Conditions -  °F | °C
As of 11:53 PM on Friday 31 Oct 2014 (Local Time) from KSNA Reporting Station
Overcast Overcast  
Wind Chill: 69°   Ceiling: 6500
Heat Index: 69°   Visibility: 10mi
Dew Point: 54°   Wind: 9mph
Humidity: 58%   Direction: 180°S
Pressure: 29.85"   Gusts: NA
Location:  33.6654°N, 117.968°W
Report Text: KSNA 010653Z AUTO 18008KT 10SM FEW028 SCT033 OVC065 21/12 A2985 RMK AO2 SLP105 T02060122 TSNO $
Loading
Personal Weather Stations






























Interactive Weather Map
Tropical Storm Tracking
New forecast layout! Learn more

10-Day Weather Forecast

Advertisements
Track Severe Weather on mobile